Whalan, Minnesota
Current Conditions -  °F | °C
As of 10:15 AM on Monday 24 Nov 2014 (Local Time) from KFKA Reporting Station
Overcast Overcast  
Wind Chill:   Ceiling: 800
Heat Index: 22°   Visibility: 7mi
Dew Point: 19°   Wind: 21mph
Humidity: 91%   Direction: 310°NW
Pressure: 29.36"   Gusts: 31mph
Location:  43.7165°N, 91.9871°W
Report Text: KFKA 241615Z AUTO 31018G27KT 7SM OVC008 M06/M07 A2936 RMK AO2 T10581070
Loading
Personal Weather Stations






























Interactive Weather Map New forecast layout! Learn more

10-Day Weather Forecast

Advertisements
Track Severe Weather on mobile